Time;durP1;ratioP1;P1;durP2;ratioP2;P2;SDS_P1;SDS_P2;PMS_P1;PMS_P2;Temp;Humidity;BMP_temperature;BMP_pressure;BME280_temperature;BME280_humidity;BME280_pressure;Samples;Min_cycle;Max_cycle;Signal;HPM_P1;HPM_P2
2022/06/06 00:01:17;;;;;;;43.42;22.50;;;17.90;99.90;;;;;;7339361;19;111277;-81
2022/06/06 00:03:46;;;;;;;45.72;21.73;;;17.90;99.90;;;;;;7339769;19;112122;-81
2022/06/06 00:06:17;;;;;;;36.17;20.35;;;17.90;99.90;;;;;;7340429;19;111183;-81
2022/06/06 00:08:45;;;;;;;37.10;19.83;;;17.90;99.90;;;;;;7344923;19;111367;-81
2022/06/06 00:11:13;;;;;;;39.40;19.35;;;17.80;99.90;;;;;;7340530;19;110630;-81
2022/06/06 00:13:43;;;;;;;39.65;19.77;;;17.80;99.90;;;;;;7341172;19;111343;-81
2022/06/06 00:16:12;;;;;;;32.35;18.58;;;17.80;99.90;;;;;;7341079;19;112171;-81
2022/06/06 00:18:43;;;;;;;38.88;20.48;;;17.80;99.90;;;;;;7341001;19;110483;-81
2022/06/06 00:21:11;;;;;;;42.20;21.38;;;17.70;99.90;;;;;;7338239;19;111025;-80
2022/06/06 00:23:39;;;;;;;47.03;22.08;;;17.80;99.90;;;;;;7342091;19;111894;-81
2022/06/06 00:26:13;;;;;;;43.53;20.83;;;17.70;99.90;;;;;;7341867;19;110949;-81
2022/06/06 00:28:44;;;;;;;40.55;21.35;;;17.70;99.90;;;;;;7347101;19;111237;-80
2022/06/06 00:36:43;;;;;;;38.75;20.40;;;17.70;99.90;;;;;;7341303;19;111336;-81
2022/06/06 00:39:13;;;;;;;41.28;20.73;;;17.70;99.90;;;;;;7342468;19;109946;-81
2022/06/06 00:41:47;;;;;;;42.05;20.75;;;17.60;99.90;;;;;;7337691;19;112042;-81
2022/06/06 00:44:17;;;;;;;39.35;20.73;;;17.60;99.90;;;;;;7339898;19;111751;-81
2022/06/06 00:46:55;;;;;;;39.42;19.70;;;17.60;99.90;;;;;;7341119;19;110998;-80
2022/06/06 00:49:27;;;;;;;;;;;17.60;99.90;;;;;;7339630;19;112321;-81
2022/06/06 00:52:04;;;;;;;42.25;20.95;;;17.60;99.90;;;;;;7352357;19;107208;-81
2022/06/06 00:54:31;;;;;;;38.45;19.88;;;17.50;99.90;;;;;;7341848;19;109955;-81
2022/06/06 00:57:03;;;;;;;43.55;20.80;;;17.50;99.90;;;;;;7341650;19;111612;-81
2022/06/06 00:59:34;;;;;;;43.00;21.50;;;17.60;99.90;;;;;;7341227;19;111380;-82
2022/06/06 01:02:02;;;;;;;44.92;21.52;;;17.50;99.90;;;;;;7340409;19;112221;-81
2022/06/06 01:04:30;;;;;;;39.78;21.65;;;17.50;99.90;;;;;;7339038;19;113080;-81
2022/06/06 01:06:58;;;;;;;43.42;21.90;;;17.50;99.90;;;;;;7338186;19;111045;-81
2022/06/06 01:09:25;;;;;;;41.78;21.83;;;17.50;99.90;;;;;;7341459;19;112082;-81
2022/06/06 01:12:02;;;;;;;44.47;22.02;;;17.40;99.90;;;;;;7340622;19;112147;-81
2022/06/06 01:14:33;;;;;;;46.92;22.88;;;17.40;99.90;;;;;;7345284;19;110099;-81
2022/06/06 01:17:05;;;;;;;44.78;23.33;;;17.40;99.90;;;;;;7339649;19;112516;-80
2022/06/06 01:20:07;;;;;;;47.78;24.00;;;17.40;99.90;;;;;;7336802;19;110926;-80
2022/06/06 01:22:56;;;;;;;48.75;23.73;;;17.40;99.90;;;;;;7339262;19;112396;-81
2022/06/06 01:25:58;;;;;;;48.20;23.85;;;17.40;99.90;;;;;;7338292;19;111919;-81
2022/06/06 01:28:43;;;;;;;44.10;23.02;;;17.40;99.90;;;;;;7336972;19;110066;-81
2022/06/06 01:31:16;;;;;;;48.47;22.23;;;17.30;99.90;;;;;;7336933;19;111417;-81
2022/06/06 01:33:59;;;;;;;45.20;21.67;;;17.40;99.90;;;;;;7338715;19;111775;-81
2022/06/06 01:36:30;;;;;;;45.95;22.55;;;17.30;99.90;;;;;;7337747;19;111478;-81
2022/06/06 01:39:01;;;;;;;44.33;21.50;;;17.30;99.90;;;;;;7345945;19;111429;-80
2022/06/06 01:42:03;;;;;;;43.90;21.65;;;17.30;99.90;;;;;;7338709;19;110433;-81
2022/06/06 01:44:39;;;;;;;44.65;21.50;;;17.30;99.90;;;;;;7334203;19;111580;-81
2022/06/06 01:47:14;;;;;;;41.03;20.17;;;17.20;99.90;;;;;;7338054;19;111439;-81
2022/06/06 01:49:42;;;;;;;43.00;20.73;;;17.20;99.90;;;;;;7337674;19;110309;-81
2022/06/06 01:52:13;;;;;;;38.35;20.40;;;17.10;99.90;;;;;;7336767;19;111393;-81
2022/06/06 01:54:41;;;;;;;42.33;21.98;;;17.10;99.90;;;;;;7338657;19;111730;-81
2022/06/06 01:57:12;;;;;;;42.78;20.60;;;17.10;99.90;;;;;;7337103;19;110189;-81
2022/06/06 01:59:40;;;;;;;40.90;21.48;;;17.10;99.90;;;;;;7334735;19;111971;-81
2022/06/06 02:02:09;;;;;;;35.65;20.20;;;17.00;99.90;;;;;;7340478;19;112067;-81
2022/06/06 02:04:36;;;;;;;44.42;21.90;;;17.00;99.90;;;;;;7337603;19;111809;-81
2022/06/06 02:07:03;;;;;;;42.67;20.98;;;17.00;99.90;;;;;;7336575;19;111931;-81
2022/06/06 02:09:32;;;;;;;41.63;20.80;;;16.90;99.90;;;;;;7338255;19;110071;-81
2022/06/06 02:12:00;;;;;;;38.75;21.08;;;16.90;99.90;;;;;;7335719;19;112249;-81
2022/06/06 02:14:27;;;;;;;41.53;20.50;;;16.90;99.90;;;;;;7337373;19;112265;-81
2022/06/06 02:16:55;;;;;;;36.03;19.13;;;16.90;99.90;;;;;;7338193;19;110175;-81
2022/06/06 02:19:22;;;;;;;37.38;20.48;;;16.90;99.90;;;;;;7335271;19;111392;-81
2022/06/06 02:21:49;;;;;;;38.55;19.13;;;16.90;99.90;;;;;;7341885;19;113870;-81
2022/06/06 02:24:16;;;;;;;35.65;19.17;;;16.90;99.90;;;;;;7338498;19;111548;-81
2022/06/06 02:26:43;;;;;;;34.55;17.65;;;16.80;99.90;;;;;;7337367;19;111868;-81
2022/06/06 02:29:10;;;;;;;36.80;18.00;;;16.80;99.90;;;;;;7336603;19;110735;-81
2022/06/06 02:31:40;;;;;;;37.30;18.30;;;16.80;99.90;;;;;;7334919;19;110501;-81
2022/06/06 02:34:08;;;;;;;33.45;16.42;;;16.70;99.90;;;;;;7337829;19;114000;-81
2022/06/06 02:36:35;;;;;;;34.15;17.30;;;16.70;99.90;;;;;;7339164;19;111332;-80
2022/06/06 02:39:08;;;;;;;30.70;16.80;;;16.70;99.90;;;;;;7338527;19;111457;-81
2022/06/06 02:41:35;;;;;;;35.17;16.17;;;16.60;99.90;;;;;;7335572;19;111807;-81
2022/06/06 02:44:02;;;;;;;32.70;16.52;;;16.60;99.90;;;;;;7339270;19;110732;-80
2022/06/06 02:46:29;;;;;;;36.92;17.38;;;16.60;99.90;;;;;;7337342;19;111761;-81
2022/06/06 02:48:56;;;;;;;27.45;16.48;;;16.60;99.90;;;;;;7335112;19;110639;-81
2022/06/06 02:51:23;;;;;;;32.78;16.48;;;16.60;99.90;;;;;;7335897;19;111626;-80
2022/06/06 02:53:51;;;;;;;35.70;17.10;;;16.60;99.90;;;;;;7336416;19;112002;-80
2022/06/06 02:56:18;;;;;;;36.88;18.50;;;16.60;99.90;;;;;;7334745;19;110546;-81
2022/06/06 02:58:45;;;;;;;34.10;17.15;;;16.50;99.90;;;;;;7338879;19;111169;-81
2022/06/06 03:01:12;;;;;;;34.33;17.52;;;16.50;99.90;;;;;;7337930;19;112959;-81
2022/06/06 03:03:40;;;;;;;33.88;18.00;;;16.50;99.90;;;;;;7336554;19;111164;-81
2022/06/06 03:06:14;;;;;;;37.38;17.50;;;16.40;99.90;;;;;;7341394;19;111251;-80
2022/06/06 03:09:00;;;;;;;33.75;16.48;;;16.40;99.90;;;;;;7337972;19;109959;-81
2022/06/06 03:11:59;;;;;;;33.28;16.88;;;16.40;99.90;;;;;;7336230;19;111424;-80
2022/06/06 03:14:44;;;;;;;32.70;16.52;;;16.30;99.90;;;;;;7345210;19;112122;-80
2022/06/06 03:20:47;;;;;;;28.05;14.88;;;16.20;99.90;;;;;;7341877;19;111595;-80
2022/06/06 03:24:13;;;;;;;24.42;14.25;;;16.10;99.90;;;;;;7343891;19;111579;-80
2022/06/06 03:26:47;;;;;;;26.50;14.60;;;16.10;99.90;;;;;;7339747;19;109943;-80
2022/06/06 03:29:44;;;;;;;29.83;14.80;;;16.10;99.90;;;;;;7340328;19;111600;-80
2022/06/06 03:32:45;;;;;;;30.08;15.13;;;16.00;99.90;;;;;;7344695;19;111796;-80
2022/06/06 03:35:26;;;;;;;25.15;14.20;;;16.00;99.90;;;;;;7338591;19;112344;-80
2022/06/06 03:38:08;;;;;;;26.52;13.75;;;16.00;99.90;;;;;;7338663;19;111665;-80
2022/06/06 03:40:56;;;;;;;23.58;13.73;;;16.00;99.90;;;;;;7339140;19;111205;-80
2022/06/06 03:43:23;;;;;;;;;;;15.90;99.90;;;;;;7339597;19;112268;-81
2022/06/06 03:46:05;;;;;;;23.48;12.88;;;15.90;99.90;;;;;;7345061;19;108925;-81
2022/06/06 03:48:57;;;;;;;23.10;13.43;;;15.90;99.90;;;;;;7337931;19;111558;-81
2022/06/06 03:51:36;;;;;;;24.50;12.48;;;15.90;99.90;;;;;;7338944;19;111755;-80
2022/06/06 03:54:09;;;;;;;23.63;13.25;;;15.90;99.90;;;;;;7338639;19;111812;-80
2022/06/06 03:56:55;;;;;;;23.80;13.27;;;15.90;99.90;;;;;;7344649;19;109948;-80
2022/06/06 03:59:23;;;;;;;20.15;12.30;;;15.80;99.90;;;;;;7342452;19;111982;-80
2022/06/06 04:01:52;;;;;;;23.98;12.65;;;15.80;99.90;;;;;;7340748;19;111495;-80
2022/06/06 04:04:20;;;;;;;22.25;11.90;;;15.80;99.90;;;;;;7338361;19;111608;-80
2022/06/06 04:06:48;;;;;;;20.77;13.00;;;15.80;99.90;;;;;;7340549;19;112554;-80
2022/06/06 04:09:15;;;;;;;21.20;12.93;;;15.80;99.90;;;;;;7340259;19;110020;-80
2022/06/06 04:12:10;;;;;;;19.42;12.05;;;15.80;99.90;;;;;;7342594;19;111178;-80
2022/06/06 04:14:55;;;;;;;21.48;12.10;;;15.80;99.90;;;;;;7342456;19;112565;-80
2022/06/06 04:17:26;;;;;;;23.40;12.07;;;15.80;99.90;;;;;;7342090;19;109843;-79
2022/06/06 04:20:22;;;;;;;23.35;11.70;;;15.80;99.90;;;;;;7342768;19;111937;-80
2022/06/06 04:23:13;;;;;;;23.55;12.23;;;15.80;99.90;;;;;;7340392;19;111834;-80
2022/06/06 04:25:43;;;;;;;19.58;11.57;;;15.80;99.90;;;;;;7340997;19;111655;-80
2022/06/06 04:28:32;;;;;;;23.73;10.95;;;15.80;99.90;;;;;;7341295;19;111851;-80
2022/06/06 04:31:17;;;;;;;24.20;12.73;;;15.80;99.90;;;;;;7342014;19;111055;-80
2022/06/06 04:34:03;;;;;;;19.63;11.23;;;15.70;99.90;;;;;;7339423;19;111732;-81
2022/06/06 04:36:37;;;;;;;21.85;11.43;;;15.70;99.90;;;;;;7341337;19;110828;-80
2022/06/06 04:39:38;;;;;;;16.95;11.40;;;15.70;99.90;;;;;;7340827;19;111171;-81
2022/06/06 04:42:09;;;;;;;17.88;10.40;;;15.80;99.90;;;;;;7345721;19;111706;-80
2022/06/06 04:44:54;;;;;;;18.90;10.63;;;15.70;99.90;;;;;;7340607;19;110128;-81
2022/06/06 04:47:37;;;;;;;16.38;9.70;;;15.80;99.90;;;;;;7343091;19;111403;-80
2022/06/06 04:50:10;;;;;;;12.85;8.77;;;15.80;99.90;;;;;;7343949;19;108296;-80
2022/06/06 04:52:41;;;;;;;16.02;9.40;;;15.70;99.90;;;;;;7345280;19;108926;-80
2022/06/06 04:55:10;;;;;;;13.40;8.30;;;15.70;99.90;;;;;;7344480;19;108398;-80
2022/06/06 04:57:42;;;;;;;14.48;7.88;;;15.70;99.90;;;;;;7343227;19;107686;-80
2022/06/06 05:00:10;;;;;;;14.70;7.80;;;15.70;99.90;;;;;;7344629;19;108882;-81
2022/06/06 05:02:37;;;;;;;10.50;6.50;;;15.60;99.90;;;;;;7340670;19;107681;-80
2022/06/06 05:05:05;;;;;;;13.48;6.90;;;15.60;99.90;;;;;;7348845;19;111485;-80
2022/06/06 05:07:54;;;;;;;12.73;6.78;;;15.70;99.90;;;;;;7345528;19;107954;-80
2022/06/06 05:10:44;;;;;;;13.27;6.80;;;15.70;99.90;;;;;;7342873;19;111722;-80
2022/06/06 05:13:33;;;;;;;12.52;5.85;;;15.70;99.90;;;;;;7340910;19;108123;-80
2022/06/06 05:16:06;;;;;;;8.55;5.40;;;15.70;99.90;;;;;;7341928;19;108294;-80
2022/06/06 05:18:53;;;;;;;11.95;5.68;;;15.80;99.90;;;;;;7341734;19;108236;-81
2022/06/06 05:21:32;;;;;;;10.95;5.63;;;15.80;99.90;;;;;;7341733;19;108886;-80
2022/06/06 05:24:43;;;;;;;9.68;5.22;;;15.80;99.90;;;;;;7342153;19;107162;-81
2022/06/06 05:27:19;;;;;;;8.38;5.22;;;15.80;99.90;;;;;;7343379;19;108284;-80
2022/06/06 05:30:16;;;;;;;11.57;5.10;;;15.80;99.90;;;;;;7346756;19;109082;-80
2022/06/06 05:33:01;;;;;;;8.82;5.13;;;15.90;99.90;;;;;;7336685;19;108249;-81
2022/06/06 05:35:57;;;;;;;5.65;5.00;;;15.90;99.90;;;;;;7335861;19;108127;-80
2022/06/06 05:38:30;;;;;;;6.40;4.40;;;16.00;99.90;;;;;;7338713;19;108302;-80
2022/06/06 05:41:16;;;;;;;6.15;4.05;;;16.00;99.90;;;;;;7338843;19;108726;-81
2022/06/06 05:43:56;;;;;;;9.45;4.40;;;16.10;99.90;;;;;;7335684;19;109201;-81
2022/06/06 05:47:16;;;;;;;5.75;3.83;;;16.20;99.90;;;;;;7339540;19;110633;-80
2022/06/06 05:49:44;;;;;;;6.72;3.72;;;16.20;99.90;;;;;;7338867;19;108249;-81
2022/06/06 05:52:11;;;;;;;6.72;3.53;;;16.30;99.90;;;;;;7338824;19;109277;-81
2022/06/06 05:54:43;;;;;;;7.38;3.63;;;16.40;99.90;;;;;;7343176;19;108102;-81
2022/06/06 05:57:54;;;;;;;10.32;2.88;;;16.50;99.90;;;;;;7338244;19;107910;-81
2022/06/06 06:00:53;;;;;;;7.82;3.08;;;16.50;99.90;;;;;;7338479;19;108704;-81
2022/06/06 06:03:35;;;;;;;7.72;2.78;;;16.40;99.90;;;;;;7333862;19;108863;-80
2022/06/06 06:06:11;;;;;;;9.68;2.40;;;16.40;99.90;;;;;;7339137;19;110033;-80
2022/06/06 06:08:58;;;;;;;4.63;2.28;;;16.30;99.90;;;;;;7337708;19;109199;-81
2022/06/06 06:11:49;;;;;;;5.50;2.80;;;16.20;99.90;;;;;;7337931;19;108642;-80
2022/06/06 06:14:57;;;;;;;5.05;3.20;;;16.10;99.90;;;;;;7337251;19;108161;-80
2022/06/06 06:17:28;;;;;;;3.63;2.53;;;16.20;99.90;;;;;;7336271;19;108361;-80
2022/06/06 06:20:06;;;;;;;4.00;2.25;;;16.30;99.90;;;;;;7342006;19;108342;-81
2022/06/06 06:22:49;;;;;;;6.40;2.50;;;16.40;99.90;;;;;;7341024;19;107418;-81
2022/06/06 06:25:18;;;;;;;4.88;2.13;;;16.60;99.90;;;;;;7338916;19;108459;-80
2022/06/06 06:27:46;;;;;;;7.40;2.03;;;16.70;99.90;;;;;;7342064;19;107768;-81
2022/06/06 06:30:14;;;;;;;6.03;1.85;;;16.70;99.90;;;;;;7339823;19;107995;-81
2022/06/06 06:32:48;;;;;;;3.42;1.73;;;16.80;99.90;;;;;;7339086;19;108467;-80
2022/06/06 06:35:40;;;;;;;4.03;1.30;;;16.90;99.90;;;;;;7338627;19;109241;-81
2022/06/06 06:38:39;;;;;;;3.30;1.25;;;17.10;99.90;;;;;;7339663;19;108363;-81
2022/06/06 06:41:10;;;;;;;3.13;1.30;;;17.20;99.90;;;;;;7337221;19;108534;-81
2022/06/06 06:44:04;;;;;;;5.57;1.45;;;17.30;99.90;;;;;;7340802;19;109469;-82
2022/06/06 06:46:47;;;;;;;1.55;1.15;;;17.30;99.90;;;;;;7336047;19;108864;-81
2022/06/06 06:49:33;;;;;;;2.60;1.10;;;17.40;99.90;;;;;;7338012;19;112491;-81
2022/06/06 06:52:39;;;;;;;4.45;1.50;;;17.50;99.90;;;;;;7338034;19;107622;-83
2022/06/06 06:55:21;;;;;;;4.32;1.27;;;17.60;99.90;;;;;;7337380;19;108363;-83
2022/06/06 06:58:02;;;;;;;3.28;1.38;;;17.70;99.90;;;;;;7336719;19;109463;-83
2022/06/06 07:00:41;;;;;;;11.25;1.35;;;17.80;99.90;;;;;;7339504;19;108027;-83
2022/06/06 07:09:49;;;;;;;5.20;1.23;;;17.80;99.90;;;;;;7349556;19;108303;-93
2022/06/06 07:12:31;;;;;;;7.57;1.10;;;17.90;99.90;;;;;;7350100;19;107895;-90
2022/06/06 07:15:02;;;;;;;3.33;1.10;;;17.90;99.90;;;;;;7352018;19;108344;-93
2022/06/06 07:17:33;;;;;;;4.47;1.05;;;18.00;99.90;;;;;;7351209;19;108199;-93
2022/06/06 07:20:08;;;;;;;3.47;1.13;;;18.00;99.90;;;;;;7347044;19;109323;-94
2022/06/06 07:25:26;;;;;;;2.53;0.95;;;18.00;99.90;;;;;;7349239;19;107971;-92
2022/06/06 07:27:54;;;;;;;3.17;0.90;;;18.00;99.90;;;;;;7348396;19;106955;-93
2022/06/06 07:30:22;;;;;;;2.00;0.90;;;18.10;99.90;;;;;;7351536;19;108588;-93
2022/06/06 07:33:00;;;;;;;3.45;1.02;;;18.20;99.90;;;;;;7346810;19;107852;-95
2022/06/06 07:35:43;;;;;;;2.35;1.00;;;18.30;99.90;;;;;;7347619;19;108749;-92
2022/06/06 07:38:18;;;;;;;3.60;1.00;;;18.50;99.90;;;;;;7336722;19;108034;-82
2022/06/06 07:40:53;;;;;;;2.55;0.80;;;18.50;99.90;;;;;;7335445;19;109780;-82
2022/06/06 07:43:59;;;;;;;2.90;0.80;;;18.60;99.90;;;;;;7336452;19;110440;-83
2022/06/06 07:47:07;;;;;;;3.83;0.85;;;18.70;99.90;;;;;;7337283;19;108442;-83
2022/06/06 07:49:52;;;;;;;4.45;1.00;;;18.90;99.90;;;;;;7337006;19;108148;-82
2022/06/06 07:52:40;;;;;;;4.63;0.80;;;18.80;99.90;;;;;;7338560;19;107870;-83
2022/06/06 07:55:22;;;;;;;4.18;0.90;;;18.80;99.90;;;;;;7342009;19;109511;-82
2022/06/06 07:58:24;;;;;;;3.80;1.08;;;18.80;99.90;;;;;;7339778;19;108526;-83
2022/06/06 08:01:21;;;;;;;5.47;1.23;;;18.70;99.90;;;;;;7343406;19;108236;-82
2022/06/06 08:04:07;;;;;;;3.03;1.25;;;18.50;99.90;;;;;;7342404;19;108273;-82
2022/06/06 08:06:52;;;;;;;3.60;0.90;;;18.50;99.90;;;;;;7343700;19;107487;-82
2022/06/06 08:09:48;;;;;;;3.53;1.13;;;18.50;99.90;;;;;;7345467;19;108586;-82
2022/06/06 08:12:40;;;;;;;2.72;1.40;;;18.40;99.90;;;;;;7341858;19;108316;-83
2022/06/06 08:15:36;;;;;;;3.08;1.13;;;18.40;99.90;;;;;;7344489;19;108897;-84
2022/06/06 08:18:27;;;;;;;4.03;1.00;;;18.50;99.90;;;;;;7342055;19;110283;-83
2022/06/06 08:21:19;;;;;;;4.28;1.00;;;18.60;99.90;;;;;;7348522;19;109008;-82
2022/06/06 08:23:49;;;;;;;5.00;1.23;;;18.70;99.90;;;;;;7342186;19;111785;-82
2022/06/06 08:26:17;;;;;;;2.22;0.80;;;18.80;99.90;;;;;;7345822;19;108794;-83
2022/06/06 08:28:46;;;;;;;1.92;1.00;;;18.90;99.90;;;;;;7344846;19;110278;-83
2022/06/06 08:31:13;;;;;;;3.90;1.00;;;19.00;99.90;;;;;;7343970;19;107860;-86
2022/06/06 08:33:40;;;;;;;2.30;0.80;;;18.90;99.90;;;;;;7341195;19;111798;-85
2022/06/06 08:36:33;;;;;;;3.25;1.08;;;18.80;99.90;;;;;;7344269;19;107046;-86
2022/06/06 08:39:22;;;;;;;3.45;1.02;;;18.90;99.90;;;;;;7341873;19;108621;-85
2022/06/06 08:42:09;;;;;;;2.17;1.20;;;18.80;99.90;;;;;;7344097;19;109321;-86
2022/06/06 08:45:03;;;;;;;3.53;1.20;;;18.80;99.90;;;;;;7344983;19;108519;-85
2022/06/06 08:47:42;;;;;;;4.47;1.20;;;18.90;99.90;;;;;;7343222;19;109215;-85
2022/06/06 08:50:45;;;;;;;2.67;0.90;;;18.90;99.90;;;;;;7343431;19;107621;-85
2022/06/06 08:53:46;;;;;;;2.92;1.10;;;18.80;99.90;;;;;;7344384;19;108487;-86
2022/06/06 08:56:43;;;;;;;2.38;0.90;;;18.70;99.90;;;;;;7343053;19;108628;-85
2022/06/06 08:59:15;;;;;;;5.53;1.27;;;18.60;99.90;;;;;;7343231;19;107955;-85
2022/06/06 09:01:45;;;;;;;3.50;0.95;;;18.60;99.90;;;;;;7344298;19;109485;-85
2022/06/06 09:04:46;;;;;;;1.63;0.90;;;18.80;99.90;;;;;;7343798;19;107992;-85
2022/06/06 09:07:45;;;;;;;2.70;0.98;;;19.00;99.90;;;;;;7344752;19;107984;-85
2022/06/06 09:10:21;;;;;;;4.53;1.00;;;19.20;99.90;;;;;;7348857;19;108352;-86
2022/06/06 09:13:07;;;;;;;2.47;1.15;;;19.50;99.90;;;;;;7344946;19;108011;-86
2022/06/06 09:16:16;;;;;;;2.70;0.90;;;19.70;99.90;;;;;;7345385;19;108623;-84
2022/06/06 09:18:49;;;;;;;2.30;0.80;;;19.80;99.90;;;;;;7342199;19;109304;-86
2022/06/06 09:21:42;;;;;;;3.15;1.00;;;19.90;99.90;;;;;;7345551;19;108033;-86
2022/06/06 09:24:31;;;;;;;1.35;0.70;;;20.00;99.90;;;;;;7341793;19;108135;-86
2022/06/06 09:27:16;;;;;;;2.20;0.75;;;20.00;99.90;;;;;;7343408;19;108915;-85
2022/06/06 09:30:07;;;;;;;1.63;0.70;;;20.00;99.90;;;;;;7343238;19;108206;-86
2022/06/06 09:32:49;;;;;;;1.75;1.10;;;20.10;99.90;;;;;;7350318;19;108562;-86
2022/06/06 09:35:26;;;;;;;3.05;0.80;;;20.10;99.90;;;;;;7340948;19;107212;-86
2022/06/06 09:38:09;;;;;;;2.83;0.60;;;20.10;99.90;;;;;;7343772;19;108409;-86
2022/06/06 09:41:14;;;;;;;3.53;1.27;;;20.00;99.90;;;;;;7343197;19;109157;-86
2022/06/06 09:44:12;;;;;;;5.65;0.82;;;20.00;99.90;;;;;;7344035;19;108556;-85
2022/06/06 09:46:59;;;;;;;11.38;1.00;;;20.00;99.90;;;;;;7344194;19;107445;-86
2022/06/06 09:49:57;;;;;;;3.60;0.90;;;20.30;99.90;;;;;;7342711;19;109230;-85
2022/06/06 09:52:42;;;;;;;4.63;0.80;;;20.60;99.90;;;;;;7344780;19;107337;-85
2022/06/06 10:01:43;;;;;;;1.57;0.60;;;20.70;99.90;;;;;;7345488;19;108351;-86
2022/06/06 10:04:21;;;;;;;3.78;0.90;;;20.80;99.90;;;;;;7342121;19;109220;-85
2022/06/06 10:07:04;;;;;;;6.88;0.88;;;20.80;99.90;;;;;;7343127;19;107492;-86
2022/06/06 10:09:33;;;;;;;8.30;0.82;;;20.90;99.90;;;;;;7343276;19;108283;-86
2022/06/06 10:12:32;;;;;;;3.42;0.82;;;20.90;99.90;;;;;;7343121;19;109940;-84
2022/06/06 10:15:26;;;;;;;2.83;0.63;;;20.70;98.70;;;;;;7342057;19;108436;-85
2022/06/06 10:18:37;;;;;;;3.75;0.75;;;20.50;99.10;;;;;;7343280;19;108296;-86
2022/06/06 10:21:22;;;;;;;2.92;0.60;;;20.20;99.10;;;;;;7344467;19;108666;-85
2022/06/06 10:24:22;;;;;;;0.98;0.50;;;20.00;99.70;;;;;;7346836;19;107802;-85
2022/06/06 10:27:04;;;;;;;2.75;0.60;;;19.90;99.90;;;;;;7341960;19;109245;-84
2022/06/06 10:33:30;;;;;;;3.58;0.63;;;20.20;99.90;;;;;;7343766;19;110925;-85
2022/06/06 10:36:04;;;;;;;3.25;0.68;;;20.50;99.90;;;;;;7339234;19;109036;-86
2022/06/06 10:38:55;;;;;;;5.60;0.73;;;20.80;99.90;;;;;;7339425;19;108546;-86
2022/06/06 10:41:25;;;;;;;1.73;0.57;;;20.90;99.90;;;;;;7338811;19;107754;-85
2022/06/06 10:44:23;;;;;;;2.83;0.47;;;21.10;99.90;;;;;;7337814;19;109423;-85
2022/06/06 10:46:50;;;;;;;;;;;21.30;99.90;;;;;;7337787;19;107322;-84
2022/06/06 10:49:38;;;;;;;2.45;0.60;;;21.30;99.00;;;;;;7346854;19;107856;-85
2022/06/06 10:52:26;;;;;;;6.25;0.65;;;21.20;98.40;;;;;;7339284;19;107072;-85
2022/06/06 10:55:21;;;;;;;2.20;0.60;;;21.10;97.90;;;;;;7338804;19;110816;-85
2022/06/06 10:57:56;;;;;;;1.15;0.50;;;20.90;98.10;;;;;;7339015;19;108178;-85
2022/06/06 11:00:43;;;;;;;2.13;0.40;;;20.80;98.20;;;;;;7337986;19;110600;-86
2022/06/06 11:03:37;;;;;;;1.67;0.50;;;20.60;98.30;;;;;;7334718;19;107992;-86
2022/06/06 11:06:41;;;;;;;2.50;0.60;;;20.50;99.00;;;;;;7336551;19;109343;-86
2022/06/06 11:09:27;;;;;;;2.15;0.60;;;20.50;98.20;;;;;;7342062;19;109325;-86
2022/06/06 11:12:22;;;;;;;4.85;0.80;;;20.30;98.10;;;;;;7341181;19;108119;-86
2022/06/06 11:14:51;;;;;;;2.55;0.60;;;20.30;98.60;;;;;;7345377;19;109114;-87
2022/06/06 11:17:32;;;;;;;3.65;0.65;;;20.20;98.70;;;;;;7343227;19;108270;-86
2022/06/06 11:20:16;;;;;;;1.88;0.50;;;20.20;98.90;;;;;;7339490;19;108890;-85
2022/06/06 11:23:06;;;;;;;3.47;0.52;;;20.10;98.80;;;;;;7342088;19;107396;-85
2022/06/06 11:25:51;;;;;;;2.92;0.68;;;20.10;98.80;;;;;;7337446;19;107576;-85
2022/06/06 11:28:27;;;;;;;2.05;0.70;;;19.90;99.20;;;;;;7342326;19;108967;-87
2022/06/06 11:31:16;;;;;;;1.33;0.60;;;19.90;99.60;;;;;;7342923;19;108364;-85
2022/06/06 11:34:15;;;;;;;2.95;0.60;;;19.80;99.40;;;;;;7344214;19;111572;-86
2022/06/06 11:37:03;;;;;;;3.10;0.70;;;19.80;99.20;;;;;;7348073;19;107882;-86
2022/06/06 11:39:59;;;;;;;4.13;0.70;;;19.90;99.60;;;;;;7352520;19;107300;-86
2022/06/06 11:42:52;;;;;;;2.70;0.73;;;20.10;99.70;;;;;;7347936;19;109301;-86
2022/06/06 11:45:37;;;;;;;3.97;0.60;;;20.40;99.40;;;;;;7347513;19;108380;-86
2022/06/06 11:48:34;;;;;;;4.53;0.60;;;20.50;99.30;;;;;;7349795;19;107975;-85
2022/06/06 11:51:46;;;;;;;4.80;0.50;;;20.60;99.00;;;;;;7348706;19;109233;-85
2022/06/06 11:54:32;;;;;;;2.25;0.50;;;20.60;98.60;;;;;;7348273;19;108326;-84
2022/06/06 11:57:02;;;;;;;5.57;0.70;;;20.40;98.30;;;;;;7349207;19;108358;-84
2022/06/06 11:59:49;;;;;;;3.47;0.60;;;20.30;98.30;;;;;;7346716;19;109050;-85
2022/06/06 12:02:29;;;;;;;4.05;0.50;;;20.40;98.30;;;;;;7355094;19;108602;-84
2022/06/06 12:05:14;;;;;;;2.28;0.60;;;20.40;98.30;;;;;;7347347;19;109221;-83
2022/06/06 12:08:09;;;;;;;2.15;0.50;;;20.40;98.10;;;;;;7349575;19;108393;-84
2022/06/06 12:11:17;;;;;;;2.50;0.52;;;20.40;98.30;;;;;;7346407;19;107464;-84
2022/06/06 12:13:53;;;;;;;2.70;0.50;;;20.40;98.00;;;;;;7346679;19;108379;-84
2022/06/06 12:16:45;;;;;;;3.87;0.63;;;20.30;98.50;;;;;;7347572;19;107174;-85
2022/06/06 12:19:32;;;;;;;4.00;0.60;;;20.30;98.50;;;;;;7346082;19;111705;-85
2022/06/06 12:21:59;;;;;;;3.30;0.57;;;20.20;98.70;;;;;;7346103;19;110389;-84
2022/06/06 12:24:44;;;;;;;2.63;0.60;;;20.20;98.80;;;;;;7347231;19;108421;-84
2022/06/06 12:27:33;;;;;;;2.10;0.60;;;20.20;99.10;;;;;;7352645;19;107811;-84
2022/06/06 12:30:36;;;;;;;1.40;0.60;;;20.20;99.30;;;;;;7348269;19;108047;-85
2022/06/06 12:33:18;;;;;;;6.70;0.77;;;20.20;99.40;;;;;;7345294;19;109227;-84
2022/06/06 12:36:14;;;;;;;3.75;0.60;;;20.20;99.60;;;;;;7344906;19;110128;-85
2022/06/06 12:38:57;;;;;;;2.10;0.65;;;20.30;99.70;;;;;;7346267;19;107813;-84
2022/06/06 12:41:54;;;;;;;3.33;0.57;;;20.30;99.80;;;;;;7346744;19;108470;-84
2022/06/06 12:44:40;;;;;;;3.00;0.60;;;20.30;99.80;;;;;;7340842;19;109018;-84
2022/06/06 12:47:34;;;;;;;2.00;0.63;;;20.30;99.90;;;;;;7346971;19;108028;-84
2022/06/06 12:50:25;;;;;;;5.25;0.85;;;20.40;99.80;;;;;;7344963;19;107880;-84
2022/06/06 12:53:30;;;;;;;4.40;0.50;;;20.30;99.90;;;;;;7350342;19;109322;-84
2022/06/06 12:56:25;;;;;;;2.47;0.40;;;20.20;99.90;;;;;;7347147;19;108570;-83
2022/06/06 12:58:58;;;;;;;2.90;0.60;;;20.30;99.90;;;;;;7347045;19;108897;-84
2022/06/06 13:02:01;;;;;;;3.13;0.50;;;20.30;99.10;;;;;;7346749;19;107867;-84
2022/06/06 13:04:49;;;;;;;3.25;0.52;;;20.30;99.10;;;;;;7345767;19;108679;-85
2022/06/06 13:07:28;;;;;;;4.13;0.60;;;20.20;99.10;;;;;;7347655;19;109056;-84
2022/06/06 13:10:22;;;;;;;3.92;0.55;;;20.20;99.00;;;;;;7341965;19;111365;-83
2022/06/06 13:13:21;;;;;;;2.00;0.68;;;20.30;99.20;;;;;;7344021;19;108981;-85
2022/06/06 13:16:19;;;;;;;3.03;0.50;;;20.30;99.40;;;;;;7346238;19;109176;-84
2022/06/06 13:19:06;;;;;;;3.40;0.50;;;20.40;99.10;;;;;;7348338;19;107930;-84
2022/06/06 13:21:52;;;;;;;;;;;20.50;99.30;;;;;;7342422;19;109009;-84
2022/06/06 13:25:02;;;;;;;1.52;0.50;;;20.50;99.40;;;;;;7347978;19;108420;-85
2022/06/06 13:27:56;;;;;;;6.43;4.63;;;20.60;99.70;;;;;;7341877;19;108355;-84
2022/06/06 13:30:33;;;;;;;4.18;1.88;;;20.80;99.60;;;;;;7343853;19;108766;-85
2022/06/06 13:33:21;;;;;;;4.25;1.08;;;20.80;99.10;;;;;;7342856;19;107482;-85
2022/06/06 13:36:18;;;;;;;6.28;2.15;;;20.80;98.90;;;;;;7343763;19;108249;-84
2022/06/06 13:39:04;;;;;;;14.43;7.63;;;20.90;98.90;;;;;;7343460;19;108659;-85
2022/06/06 13:41:42;;;;;;;6.50;2.20;;;21.00;99.00;;;;;;7341341;19;107918;-84
2022/06/06 13:44:48;;;;;;;5.35;2.20;;;20.90;98.60;;;;;;7347396;19;112263;-85
2022/06/06 13:47:22;;;;;;;7.35;3.13;;;20.90;98.70;;;;;;7346055;19;108484;-85
2022/06/06 13:50:02;;;;;;;6.55;1.20;;;20.70;98.80;;;;;;7342826;19;107753;-84
2022/06/06 13:52:36;;;;;;;2.40;0.70;;;20.70;98.80;;;;;;7344770;19;109569;-84
2022/06/06 13:55:33;;;;;;;2.78;0.52;;;20.70;99.10;;;;;;7345222;19;107655;-84
2022/06/06 13:58:15;;;;;;;4.05;0.70;;;20.90;99.00;;;;;;7343904;19;111522;-85
2022/06/06 14:01:20;;;;;;;3.10;0.60;;;21.00;98.70;;;;;;7343634;19;109608;-86
2022/06/06 14:04:08;;;;;;;4.10;0.77;;;21.10;98.00;;;;;;7341169;19;109758;-84
2022/06/06 14:07:27;;;;;;;2.03;0.50;;;21.20;98.00;;;;;;7345667;19;109613;-85
2022/06/06 14:10:09;;;;;;;4.18;1.33;;;21.20;98.50;;;;;;7340279;19;108007;-84
2022/06/06 14:13:11;;;;;;;3.22;0.85;;;21.30;98.30;;;;;;7340892;19;109668;-85
2022/06/06 14:15:45;;;;;;;6.45;0.63;;;21.20;98.10;;;;;;7342566;19;108980;-85